Latest Weather Observations for Fort Denison

IDN60801

Issued at 7:32 am EST Friday 28 August 2015 (issued every 30 minutes, with the page automatically refreshed every 10 minutes)

About weather observations | Map of weather stations | Latest weather observations for NSW | Other Formats
Station Details ID: 066022 Name: FORT DENISON Lat: -33.86 Lon: 151.23 Height: 5.0 m
Data from the previous 72 hours. | See also: Recent months for locations in New South Wales
Date/Time
EST
Temp
°C
App
Temp
°C
Dew
Point
Rel
Hum
%
Delta-T
°C
Wind Press
QNH
hPa
Press
MSL
hPa
Rain
since 9 am
mm
Dir
 
Spd
km/h
Gust
km/h
Spd
kts
Gust
kts
28/07:30am - - - - - WNW 20 26 11 14 - - -
28/07:00am - - - - - W 19 24 10 13 - - -
28/06:30am - - - - - WNW 13 19 7 10 - - -
28/06:00am - - - - - WNW 13 19 7 10 - - -
28/05:30am - - - - - WNW 13 19 7 10 - - -
28/05:00am - - - - - WNW 11 17 6 9 - - -
28/04:30am - - - - - WNW 17 20 9 11 - - -
28/04:00am - - - - - WNW 15 22 8 12 - - -
28/03:30am - - - - - WNW 13 19 7 10 - - -
28/03:00am - - - - - WNW 11 19 6 10 - - -
28/02:30am - - - - - W 13 20 7 11 - - -
28/02:00am - - - - - NW 15 24 8 13 - - -
28/01:30am - - - - - NW 13 15 7 8 - - -
28/01:00am - - - - - W 13 17 7 9 - - -
28/12:30am - - - - - WNW 15 22 8 12 - - -
28/12:00am - - - - - WNW 13 19 7 10 - - -
 
Date/Time
EST
Temp
°C
App
Temp
°C
Dew
Point
Rel
Hum
%
Delta-T
°C
Wind Press
QNH
hPa
Press
MSL
hPa
Rain
since 9 am
mm
Dir
 
Spd
km/h
Gust
km/h
Spd
kts
Gust
kts
27/11:30pm - - - - - WNW 13 17 7 9 - - -
27/11:00pm - - - - - WNW 13 19 7 10 - - -
27/10:30pm - - - - - WNW 15 24 8 13 - - -
27/10:00pm - - - - - NW 19 26 10 14 - - -
27/09:30pm - - - - - NW 20 30 11 16 - - -
27/09:00pm - - - - - NW 17 22 9 12 - - -
27/08:30pm - - - - - WNW 7 13 4 7 - - -
27/08:00pm - - - - - WNW 20 32 11 17 - - -
27/07:30pm - - - - - WNW 17 24 9 13 - - -
27/07:00pm - - - - - W 19 26 10 14 - - -
27/06:30pm - - - - - WSW 28 41 15 22 - - -
27/06:20pm - - - - - WSW 33 52 18 28 - - -
27/06:12pm - - - - - WNW 20 52 11 28 - - -
27/06:00pm - - - - - NW 17 22 9 12 - - -
27/05:30pm - - - - - NW 11 17 6 9 - - -
27/05:00pm - - - - - NNW 15 20 8 11 - - -
27/04:30pm - - - - - N 17 24 9 13 - - -
27/04:00pm - - - - - NNW 22 26 12 14 - - -
27/03:30pm - - - - - NW 17 24 9 13 - - -
27/03:00pm - - - - - NW 17 26 9 14 - - -
27/02:30pm - - - - - NW 22 35 12 19 - - -
27/02:00pm - - - - - NW 19 30 10 16 - - -
27/01:30pm - - - - - WNW 6 7 3 4 - - -
27/01:00pm - - - - - WNW 9 15 5 8 - - -
27/12:30pm - - - - - W 11 15 6 8 - - -
27/12:00pm - - - - - WNW 13 19 7 10 - - -
27/11:30am - - - - - W 15 20 8 11 - - -
27/11:00am - - - - - WNW 17 22 9 12 - - -
27/10:30am - - - - - NW 2 7 1 4 - - -
27/10:00am - - - - - WNW 6 6 3 3 - - -
27/09:30am - - - - - WNW 4 6 2 3 - - -
27/09:00am - - - - - W 9 11 5 6 - - -
27/08:30am - - - - - W 13 15 7 8 - - -
27/08:00am - - - - - W 11 15 6 8 - - -
27/07:30am - - - - - W 7 9 4 5 - - -
27/07:00am - - - - - W 13 17 7 9 - - -
27/06:30am - - - - - W 11 15 6 8 - - -
27/06:00am - - - - - W 13 15 7 8 - - -
27/05:30am - - - - - W 9 15 5 8 - - -
27/05:00am - - - - - W 13 17 7 9 - - -
27/04:30am - - - - - W 17 19 9 10 - - -
27/04:00am - - - - - W 13 15 7 8 - - -
27/03:30am - - - - - WNW 13 17 7 9 - - -
27/03:00am - - - - - WNW 13 15 7 8 - - -
27/02:30am - - - - - W 17 17 9 9 - - -
27/02:00am - - - - - W 15 17 8 9 - - -
27/01:30am - - - - - WNW 13 15 7 8 - - -
27/01:00am - - - - - W 15 17 8 9 - - -
27/12:30am - - - - - WNW 13 15 7 8 - - -
27/12:00am - - - - - W 11 15 6 8 - - -
 
Date/Time
EST
Temp
°C
App
Temp
°C
Dew
Point
Rel
Hum
%
Delta-T
°C
Wind Press
QNH
hPa
Press
MSL
hPa
Rain
since 9 am
mm
Dir
 
Spd
km/h
Gust
km/h
Spd
kts
Gust
kts
26/11:30pm - - - - - W 11 17 6 9 - - -
26/11:00pm - - - - - W 13 17 7 9 - - -
26/10:30pm - - - - - WNW 15 17 8 9 - - -
26/10:00pm - - - - - WNW 13 15 7 8 - - -
26/09:30pm - - - - - WNW 11 13 6 7 - - -
26/09:00pm - - - - - WNW 15 19 8 10 - - -
26/08:30pm - - - - - WNW 13 17 7 9 - - -
26/08:00pm - - - - - WSW 9 15 5 8 - - -
26/07:30pm - - - - - W 13 19 7 10 - - -
26/07:00pm - - - - - SSW 11 17 6 9 - - -
26/06:30pm - - - - - SSW 9 11 5 6 - - -
26/06:00pm - - - - - SSW 9 15 5 8 - - -
26/05:30pm - - - - - S 11 19 6 10 - - -
26/05:00pm - - - - - SSE 13 17 7 9 - - -
26/04:30pm - - - - - SSE 13 17 7 9 - - -
26/04:00pm - - - - - S 11 17 6 9 - - -
26/03:30pm - - - - - S 11 19 6 10 - - -
26/03:00pm - - - - - S 13 22 7 12 - - -
26/02:30pm - - - - - S 13 22 7 12 - - -
26/02:00pm - - - - - SSW 15 20 8 11 - - -
26/01:30pm - - - - - SSE 15 22 8 12 - - -
26/01:00pm - - - - - S 17 26 9 14 - - -
26/12:30pm - - - - - S 13 20 7 11 - - -
26/12:00pm - - - - - SE 9 15 5 8 - - -
26/11:30am - - - - - SSE 13 20 7 11 - - -
26/11:00am - - - - - SE 13 20 7 11 - - -
26/10:30am - - - - - SSE 20 26 11 14 - - -
26/10:00am - - - - - SE 15 22 8 12 - - -
26/09:30am - - - - - SE 15 22 8 12 - - -
26/09:00am - - - - - SSE 13 19 7 10 - - -
26/08:30am - - - - - SSE 15 20 8 11 - - -
26/08:00am - - - - - SSE 17 22 9 12 - - -
26/07:30am - - - - - S 9 19 5 10 - - -
26/07:00am - - - - - S 9 15 5 8 - - -
26/06:30am - - - - - SSW 11 15 6 8 - - -
26/06:00am - - - - - SSW 11 15 6 8 - - -
26/05:30am - - - - - SSW 13 19 7 10 - - -
26/05:00am - - - - - SSW 15 20 8 11 - - -
26/04:30am - - - - - SW 13 19 7 10 - - -
26/04:00am - - - - - SSW 15 19 8 10 - - -
26/03:30am - - - - - SW 15 22 8 12 - - -
26/03:00am - - - - - SW 17 24 9 13 - - -
26/02:30am - - - - - SW 17 22 9 12 - - -
26/02:00am - - - - - SW 15 22 8 12 - - -
26/01:30am - - - - - SW 15 26 8 14 - - -
26/01:00am - - - - - WSW 15 22 8 12 - - -
26/12:30am - - - - - NW 15 24 8 13 - - -
26/12:00am - - - - - NW 17 24 9 13 - - -
 
Date/Time
EST
Temp
°C
App
Temp
°C
Dew
Point
Rel
Hum
%
Delta-T
°C
Wind Press
QNH
hPa
Press
MSL
hPa
Rain
since 9 am
mm
Dir
 
Spd
km/h
Gust
km/h
Spd
kts
Gust
kts
25/11:30pm - - - - - NW 22 33 12 18 - - -
25/11:00pm - - - - - NW 30 39 16 21 - - -
25/10:30pm - - - - - NW 32 44 17 24 - - -
25/10:00pm - - - - - NW 32 52 17 28 - - -
25/09:59pm - - - - - NW 30 52 16 28 - - -
25/09:30pm - - - - - NW 26 43 14 23 - - -
25/09:00pm - - - - - NNW 32 50 17 27 - - -
25/08:48pm - - - - - NNW 33 52 18 28 - - -
25/08:30pm - - - - - NNW 28 43 15 23 - - -
25/08:00pm - - - - - NW 32 48 17 26 - - -
25/07:36pm - - - - - NW 33 54 18 29 - - -
25/07:30pm - - - - - NW 28 43 15 23 - - -
25/07:00pm - - - - - NW 28 41 15 22 - - -
25/06:30pm - - - - - NW 19 28 10 15 - - -
25/06:00pm - - - - - W 22 33 12 18 - - -
25/05:30pm - - - - - W 32 43 17 23 - - -
25/05:00pm - - - - - W 33 52 18 28 - - -
25/04:32pm - - - - - W 28 54 15 29 - - -
25/04:30pm - - - - - W 28 41 15 22 - - -
25/04:14pm - - - - - W 28 48 15 26 - - -
25/04:00pm - - - - - WSW 28 39 15 21 - - -
25/03:35pm - - - - - WSW 30 48 16 26 - - -
25/03:30pm - - - - - WSW 32 48 17 26 - - -
25/03:09pm - - - - - W 28 46 15 25 - - -
25/03:00pm - - - - - W 20 30 11 16 - - -
25/02:30pm - - - - - W 30 43 16 23 - - -
25/02:00pm - - - - - W 33 48 18 26 - - -
25/01:44pm - - - - - WSW 33 50 18 27 - - -
25/01:30pm - - - - - W 32 46 17 25 - - -
25/01:00pm - - - - - W 28 41 15 22 - - -
25/12:30pm - - - - - WNW 24 37 13 20 - - -
25/12:00pm - - - - - WNW 24 33 13 18 - - -
25/11:30am - - - - - WNW 28 37 15 20 - - -
25/11:00am - - - - - WNW 24 35 13 19 - - -
25/10:30am - - - - - WNW 22 32 12 17 - - -
25/10:00am - - - - - WNW 28 35 15 19 - - -
25/09:30am - - - - - WNW 28 41 15 22 - - -
25/09:00am - - - - - WNW 22 41 12 22 - - -
25/08:30am - - - - - WNW 20 32 11 17 - - -
25/08:00am - - - - - NW 24 37 13 20 - - -

Other Formats:

Comma delimited format used in spreadsheet applications
http://www.bom.gov.au/fwo/IDN60801/IDN60801.94769.axf

JavaScript Object Notation format (JSON) in row-major order
http://www.bom.gov.au/fwo/IDN60801/IDN60801.94769.json